sensor_id;sensor_type;location;lat;lon;timestamp;temperature;humidity
20829;DHT22;10575;50.124;8.582;2023-04-29T00:00:30;13.50;99.90
20829;DHT22;10575;50.124;8.582;2023-04-29T00:02:56;13.40;99.90
20829;DHT22;10575;50.124;8.582;2023-04-29T00:05:21;13.40;99.90
20829;DHT22;10575;50.124;8.582;2023-04-29T00:07:47;13.30;99.90
20829;DHT22;10575;50.124;8.582;2023-04-29T00:10:12;13.30;99.90
20829;DHT22;10575;50.124;8.582;2023-04-29T00:12:39;13.30;99.90
20829;DHT22;10575;50.124;8.582;2023-04-29T00:15:06;13.20;99.90
20829;DHT22;10575;50.124;8.582;2023-04-29T00:17:31;13.20;99.90
20829;DHT22;10575;50.124;8.582;2023-04-29T00:19:57;13.10;99.90
20829;DHT22;10575;50.124;8.582;2023-04-29T00:22:22;13.10;99.90
20829;DHT22;10575;50.124;8.582;2023-04-29T00:24:48;13.20;99.90
20829;DHT22;10575;50.124;8.582;2023-04-29T00:27:13;13.20;99.90
20829;DHT22;10575;50.124;8.582;2023-04-29T00:29:39;13.10;99.90
20829;DHT22;10575;50.124;8.582;2023-04-29T00:32:04;13.10;99.90
20829;DHT22;10575;50.124;8.582;2023-04-29T00:34:30;13.10;99.90
20829;DHT22;10575;50.124;8.582;2023-04-29T00:36:55;13.20;99.90
20829;DHT22;10575;50.124;8.582;2023-04-29T00:39:21;13.30;99.90
20829;DHT22;10575;50.124;8.582;2023-04-29T00:41:47;13.30;99.90
20829;DHT22;10575;50.124;8.582;2023-04-29T00:44:12;13.30;99.90
20829;DHT22;10575;50.124;8.582;2023-04-29T00:46:38;13.40;99.90
20829;DHT22;10575;50.124;8.582;2023-04-29T00:49:04;13.40;99.90
20829;DHT22;10575;50.124;8.582;2023-04-29T00:51:29;13.40;99.90
20829;DHT22;10575;50.124;8.582;2023-04-29T00:53:55;13.40;99.90
20829;DHT22;10575;50.124;8.582;2023-04-29T00:56:21;13.50;99.90
20829;DHT22;10575;50.124;8.582;2023-04-29T00:58:47;13.50;99.90
20829;DHT22;10575;50.124;8.582;2023-04-29T01:01:15;13.50;99.90
20829;DHT22;10575;50.124;8.582;2023-04-29T01:03:42;13.30;99.90
20829;DHT22;10575;50.124;8.582;2023-04-29T01:06:08;13.20;99.90
20829;DHT22;10575;50.124;8.582;2023-04-29T01:11:29;13.00;99.90
20829;DHT22;10575;50.124;8.582;2023-04-29T01:13:58;12.90;99.90
20829;DHT22;10575;50.124;8.582;2023-04-29T01:16:37;12.80;99.90
20829;DHT22;10575;50.124;8.582;2023-04-29T01:22:06;12.90;99.90
20829;DHT22;10575;50.124;8.582;2023-04-29T01:24:31;13.00;99.90
20829;DHT22;10575;50.124;8.582;2023-04-29T01:27:08;13.10;99.90
20829;DHT22;10575;50.124;8.582;2023-04-29T01:29:58;13.10;99.90
20829;DHT22;10575;50.124;8.582;2023-04-29T01:32:33;13.20;99.90
20829;DHT22;10575;50.124;8.582;2023-04-29T01:35:27;13.30;99.90
20829;DHT22;10575;50.124;8.582;2023-04-29T01:38:08;13.30;99.90
20829;DHT22;10575;50.124;8.582;2023-04-29T01:41:09;13.20;99.90
20829;DHT22;10575;50.124;8.582;2023-04-29T01:43:36;13.30;99.90
20829;DHT22;10575;50.124;8.582;2023-04-29T01:46:05;13.40;99.90
20829;DHT22;10575;50.124;8.582;2023-04-29T01:48:33;13.30;99.90
20829;DHT22;10575;50.124;8.582;2023-04-29T01:50:58;13.20;99.90
20829;DHT22;10575;50.124;8.582;2023-04-29T01:53:24;13.20;99.90
20829;DHT22;10575;50.124;8.582;2023-04-29T01:55:49;13.30;99.90
20829;DHT22;10575;50.124;8.582;2023-04-29T01:58:15;13.30;99.90
20829;DHT22;10575;50.124;8.582;2023-04-29T02:00:40;13.20;99.90
20829;DHT22;10575;50.124;8.582;2023-04-29T02:03:06;13.20;99.90
20829;DHT22;10575;50.124;8.582;2023-04-29T02:05:32;13.20;99.90
20829;DHT22;10575;50.124;8.582;2023-04-29T02:07:59;13.30;99.90
20829;DHT22;10575;50.124;8.582;2023-04-29T02:10:25;13.30;99.90
20829;DHT22;10575;50.124;8.582;2023-04-29T02:12:51;13.20;99.90
20829;DHT22;10575;50.124;8.582;2023-04-29T02:15:16;13.00;99.90
20829;DHT22;10575;50.124;8.582;2023-04-29T02:17:43;12.90;99.90
20829;DHT22;10575;50.124;8.582;2023-04-29T02:20:08;13.10;99.90
20829;DHT22;10575;50.124;8.582;2023-04-29T02:22:34;13.10;99.90
20829;DHT22;10575;50.124;8.582;2023-04-29T02:25:00;13.20;99.90
20829;DHT22;10575;50.124;8.582;2023-04-29T02:27:25;13.20;99.90
20829;DHT22;10575;50.124;8.582;2023-04-29T02:29:51;13.40;99.90
20829;DHT22;10575;50.124;8.582;2023-04-29T02:32:17;13.50;99.90
20829;DHT22;10575;50.124;8.582;2023-04-29T02:34:44;13.50;99.90
20829;DHT22;10575;50.124;8.582;2023-04-29T02:37:10;13.40;99.90
20829;DHT22;10575;50.124;8.582;2023-04-29T02:39:35;13.40;99.90
20829;DHT22;10575;50.124;8.582;2023-04-29T02:42:01;13.40;99.90
20829;DHT22;10575;50.124;8.582;2023-04-29T02:44:27;13.30;99.90
20829;DHT22;10575;50.124;8.582;2023-04-29T02:46:53;13.30;99.90
20829;DHT22;10575;50.124;8.582;2023-04-29T02:49:18;13.30;99.90
20829;DHT22;10575;50.124;8.582;2023-04-29T02:51:44;13.40;99.90
20829;DHT22;10575;50.124;8.582;2023-04-29T02:54:10;13.40;99.90
20829;DHT22;10575;50.124;8.582;2023-04-29T02:56:36;13.40;99.90
20829;DHT22;10575;50.124;8.582;2023-04-29T02:59:02;13.50;99.90
20829;DHT22;10575;50.124;8.582;2023-04-29T03:01:27;13.40;99.90
20829;DHT22;10575;50.124;8.582;2023-04-29T03:03:53;13.50;99.90
20829;DHT22;10575;50.124;8.582;2023-04-29T03:06:19;13.40;99.90
20829;DHT22;10575;50.124;8.582;2023-04-29T03:08:45;13.40;99.90
20829;DHT22;10575;50.124;8.582;2023-04-29T03:11:10;13.30;99.90
20829;DHT22;10575;50.124;8.582;2023-04-29T03:13:36;13.30;99.90
20829;DHT22;10575;50.124;8.582;2023-04-29T03:16:03;13.20;99.90
20829;DHT22;10575;50.124;8.582;2023-04-29T03:18:28;13.20;99.90
20829;DHT22;10575;50.124;8.582;2023-04-29T03:20:54;13.20;99.90
20829;DHT22;10575;50.124;8.582;2023-04-29T03:23:19;13.10;99.90
20829;DHT22;10575;50.124;8.582;2023-04-29T03:25:46;12.90;99.90
20829;DHT22;10575;50.124;8.582;2023-04-29T03:28:12;12.90;99.90
20829;DHT22;10575;50.124;8.582;2023-04-29T03:30:37;12.80;99.90
20829;DHT22;10575;50.124;8.582;2023-04-29T03:33:03;12.70;99.90
20829;DHT22;10575;50.124;8.582;2023-04-29T03:35:28;12.70;99.90
20829;DHT22;10575;50.124;8.582;2023-04-29T03:37:54;12.70;99.90
20829;DHT22;10575;50.124;8.582;2023-04-29T03:40:19;12.70;99.90
20829;DHT22;10575;50.124;8.582;2023-04-29T03:42:45;12.70;99.90
20829;DHT22;10575;50.124;8.582;2023-04-29T03:45:10;12.70;99.90
20829;DHT22;10575;50.124;8.582;2023-04-29T03:47:39;12.70;99.90
20829;DHT22;10575;50.124;8.582;2023-04-29T03:50:06;12.70;99.90
20829;DHT22;10575;50.124;8.582;2023-04-29T03:52:32;12.60;99.90
20829;DHT22;10575;50.124;8.582;2023-04-29T03:55:01;12.70;99.90
20829;DHT22;10575;50.124;8.582;2023-04-29T03:57:26;12.70;99.90
20829;DHT22;10575;50.124;8.582;2023-04-29T03:59:52;12.70;99.90
20829;DHT22;10575;50.124;8.582;2023-04-29T04:02:17;12.70;99.90
20829;DHT22;10575;50.124;8.582;2023-04-29T04:04:44;12.70;99.90
20829;DHT22;10575;50.124;8.582;2023-04-29T04:07:09;12.70;99.90
20829;DHT22;10575;50.124;8.582;2023-04-29T04:09:36;12.70;99.90
20829;DHT22;10575;50.124;8.582;2023-04-29T04:12:02;12.80;99.90
20829;DHT22;10575;50.124;8.582;2023-04-29T04:14:27;12.70;99.90
20829;DHT22;10575;50.124;8.582;2023-04-29T04:16:53;12.70;99.90
20829;DHT22;10575;50.124;8.582;2023-04-29T04:19:19;12.60;99.90
20829;DHT22;10575;50.124;8.582;2023-04-29T04:21:45;12.50;99.90
20829;DHT22;10575;50.124;8.582;2023-04-29T04:24:10;12.50;99.90
20829;DHT22;10575;50.124;8.582;2023-04-29T04:26:35;12.50;99.90
20829;DHT22;10575;50.124;8.582;2023-04-29T04:29:01;12.50;99.90
20829;DHT22;10575;50.124;8.582;2023-04-29T04:31:27;12.50;99.90
20829;DHT22;10575;50.124;8.582;2023-04-29T04:33:53;12.40;99.90
20829;DHT22;10575;50.124;8.582;2023-04-29T04:36:18;12.40;99.90
20829;DHT22;10575;50.124;8.582;2023-04-29T04:38:44;12.40;99.90
20829;DHT22;10575;50.124;8.582;2023-04-29T04:41:09;12.50;99.90
20829;DHT22;10575;50.124;8.582;2023-04-29T04:43:35;12.60;99.90
20829;DHT22;10575;50.124;8.582;2023-04-29T04:46:09;12.70;99.90
20829;DHT22;10575;50.124;8.582;2023-04-29T04:48:35;12.60;99.90
20829;DHT22;10575;50.124;8.582;2023-04-29T04:51:07;12.60;99.90
20829;DHT22;10575;50.124;8.582;2023-04-29T04:53:33;12.60;99.90
20829;DHT22;10575;50.124;8.582;2023-04-29T04:56:02;12.70;99.90
20829;DHT22;10575;50.124;8.582;2023-04-29T04:58:27;12.80;99.90
20829;DHT22;10575;50.124;8.582;2023-04-29T05:00:53;12.70;99.90
20829;DHT22;10575;50.124;8.582;2023-04-29T05:03:18;12.60;99.90
20829;DHT22;10575;50.124;8.582;2023-04-29T05:05:44;12.60;99.90
20829;DHT22;10575;50.124;8.582;2023-04-29T05:08:10;12.70;99.90
20829;DHT22;10575;50.124;8.582;2023-04-29T05:10:36;12.70;99.90
20829;DHT22;10575;50.124;8.582;2023-04-29T05:13:01;12.70;99.90
20829;DHT22;10575;50.124;8.582;2023-04-29T05:15:27;12.50;99.90
20829;DHT22;10575;50.124;8.582;2023-04-29T05:17:52;12.50;99.90
20829;DHT22;10575;50.124;8.582;2023-04-29T05:20:18;12.50;99.90
20829;DHT22;10575;50.124;8.582;2023-04-29T05:22:44;12.70;99.90
20829;DHT22;10575;50.124;8.582;2023-04-29T05:25:10;12.80;99.90
20829;DHT22;10575;50.124;8.582;2023-04-29T05:27:35;12.90;99.90
20829;DHT22;10575;50.124;8.582;2023-04-29T05:30:01;13.10;99.90
20829;DHT22;10575;50.124;8.582;2023-04-29T05:32:26;13.10;99.90
20829;DHT22;10575;50.124;8.582;2023-04-29T05:34:52;13.00;99.90
20829;DHT22;10575;50.124;8.582;2023-04-29T05:37:17;13.20;99.90
20829;DHT22;10575;50.124;8.582;2023-04-29T05:39:44;13.40;99.90
20829;DHT22;10575;50.124;8.582;2023-04-29T05:42:09;13.70;99.90
20829;DHT22;10575;50.124;8.582;2023-04-29T05:44:35;13.80;99.90
20829;DHT22;10575;50.124;8.582;2023-04-29T05:47:00;14.00;99.90
20829;DHT22;10575;50.124;8.582;2023-04-29T05:49:26;14.30;99.90
20829;DHT22;10575;50.124;8.582;2023-04-29T05:51:51;14.90;99.90
20829;DHT22;10575;50.124;8.582;2023-04-29T05:54:17;15.30;99.90
20829;DHT22;10575;50.124;8.582;2023-04-29T05:56:42;15.30;99.90
20829;DHT22;10575;50.124;8.582;2023-04-29T05:59:08;15.20;99.90
20829;DHT22;10575;50.124;8.582;2023-04-29T06:01:33;15.40;99.90
20829;DHT22;10575;50.124;8.582;2023-04-29T06:03:59;15.40;99.90
20829;DHT22;10575;50.124;8.582;2023-04-29T06:06:25;15.30;99.90
20829;DHT22;10575;50.124;8.582;2023-04-29T06:08:51;15.20;99.90
20829;DHT22;10575;50.124;8.582;2023-04-29T06:11:17;15.00;99.90
20829;DHT22;10575;50.124;8.582;2023-04-29T06:13:42;14.90;99.90
20829;DHT22;10575;50.124;8.582;2023-04-29T06:16:09;14.80;99.90
20829;DHT22;10575;50.124;8.582;2023-04-29T06:18:35;14.70;99.90
20829;DHT22;10575;50.124;8.582;2023-04-29T06:21:02;14.60;99.90
20829;DHT22;10575;50.124;8.582;2023-04-29T06:23:27;14.70;99.90
20829;DHT22;10575;50.124;8.582;2023-04-29T06:25:53;14.80;99.90
20829;DHT22;10575;50.124;8.582;2023-04-29T06:28:18;14.70;99.90
20829;DHT22;10575;50.124;8.582;2023-04-29T06:30:44;14.70;99.90
20829;DHT22;10575;50.124;8.582;2023-04-29T06:33:11;14.70;99.90
20829;DHT22;10575;50.124;8.582;2023-04-29T06:35:40;14.70;99.90
20829;DHT22;10575;50.124;8.582;2023-04-29T06:38:06;14.70;99.90
20829;DHT22;10575;50.124;8.582;2023-04-29T06:40:33;14.70;99.90
20829;DHT22;10575;50.124;8.582;2023-04-29T06:42:58;14.70;99.90
20829;DHT22;10575;50.124;8.582;2023-04-29T06:45:24;14.70;99.90
20829;DHT22;10575;50.124;8.582;2023-04-29T06:47:49;14.70;99.90
20829;DHT22;10575;50.124;8.582;2023-04-29T06:50:15;14.60;99.90
20829;DHT22;10575;50.124;8.582;2023-04-29T06:52:40;14.70;99.90
20829;DHT22;10575;50.124;8.582;2023-04-29T06:55:06;14.60;99.90
20829;DHT22;10575;50.124;8.582;2023-04-29T06:57:32;14.40;99.90
20829;DHT22;10575;50.124;8.582;2023-04-29T06:59:58;14.30;99.90
20829;DHT22;10575;50.124;8.582;2023-04-29T07:02:23;14.20;99.90
20829;DHT22;10575;50.124;8.582;2023-04-29T07:04:49;14.30;99.90
20829;DHT22;10575;50.124;8.582;2023-04-29T07:07:15;14.30;99.90
20829;DHT22;10575;50.124;8.582;2023-04-29T07:09:41;14.30;99.90
20829;DHT22;10575;50.124;8.582;2023-04-29T07:12:06;14.20;99.90
20829;DHT22;10575;50.124;8.582;2023-04-29T07:14:32;14.10;99.90
20829;DHT22;10575;50.124;8.582;2023-04-29T07:16:57;14.10;99.90
20829;DHT22;10575;50.124;8.582;2023-04-29T07:19:23;14.20;99.90
20829;DHT22;10575;50.124;8.582;2023-04-29T07:21:48;14.30;99.90
20829;DHT22;10575;50.124;8.582;2023-04-29T07:24:14;14.50;99.90
20829;DHT22;10575;50.124;8.582;2023-04-29T07:26:41;14.60;99.90
20829;DHT22;10575;50.124;8.582;2023-04-29T07:29:07;14.90;99.90
20829;DHT22;10575;50.124;8.582;2023-04-29T07:31:32;14.90;99.90
20829;DHT22;10575;50.124;8.582;2023-04-29T07:33:58;15.00;99.90
20829;DHT22;10575;50.124;8.582;2023-04-29T07:36:24;15.10;99.90
20829;DHT22;10575;50.124;8.582;2023-04-29T07:38:50;15.30;99.90
20829;DHT22;10575;50.124;8.582;2023-04-29T07:41:15;15.40;99.90
20829;DHT22;10575;50.124;8.582;2023-04-29T07:43:41;15.20;99.90
20829;DHT22;10575;50.124;8.582;2023-04-29T07:46:06;15.00;99.90
20829;DHT22;10575;50.124;8.582;2023-04-29T07:48:38;15.10;99.90
20829;DHT22;10575;50.124;8.582;2023-04-29T07:51:05;15.20;99.90
20829;DHT22;10575;50.124;8.582;2023-04-29T07:53:31;15.20;99.90
20829;DHT22;10575;50.124;8.582;2023-04-29T07:55:56;15.20;99.90
20829;DHT22;10575;50.124;8.582;2023-04-29T07:58:22;15.30;99.90
20829;DHT22;10575;50.124;8.582;2023-04-29T08:00:47;15.30;99.90
20829;DHT22;10575;50.124;8.582;2023-04-29T08:03:13;15.40;99.90
20829;DHT22;10575;50.124;8.582;2023-04-29T08:05:38;15.30;99.90
20829;DHT22;10575;50.124;8.582;2023-04-29T08:08:06;15.20;99.90
20829;DHT22;10575;50.124;8.582;2023-04-29T08:10:32;15.20;99.90
20829;DHT22;10575;50.124;8.582;2023-04-29T08:13:03;15.10;99.90
20829;DHT22;10575;50.124;8.582;2023-04-29T08:15:29;15.10;99.90
20829;DHT22;10575;50.124;8.582;2023-04-29T08:17:54;14.90;99.90
20829;DHT22;10575;50.124;8.582;2023-04-29T08:20:20;15.00;99.90
20829;DHT22;10575;50.124;8.582;2023-04-29T08:22:46;15.00;99.90
20829;DHT22;10575;50.124;8.582;2023-04-29T08:25:11;14.90;99.90
20829;DHT22;10575;50.124;8.582;2023-04-29T08:27:37;15.10;99.90
20829;DHT22;10575;50.124;8.582;2023-04-29T08:30:02;14.90;99.90
20829;DHT22;10575;50.124;8.582;2023-04-29T08:32:28;14.80;99.90
20829;DHT22;10575;50.124;8.582;2023-04-29T08:34:54;14.70;99.90
20829;DHT22;10575;50.124;8.582;2023-04-29T08:37:20;14.80;99.90
20829;DHT22;10575;50.124;8.582;2023-04-29T08:39:46;15.00;99.90
20829;DHT22;10575;50.124;8.582;2023-04-29T08:42:12;15.00;99.90
20829;DHT22;10575;50.124;8.582;2023-04-29T08:44:38;14.90;99.90
20829;DHT22;10575;50.124;8.582;2023-04-29T08:47:05;14.90;99.90
20829;DHT22;10575;50.124;8.582;2023-04-29T08:49:31;14.90;99.90
20829;DHT22;10575;50.124;8.582;2023-04-29T08:51:58;15.00;99.90
20829;DHT22;10575;50.124;8.582;2023-04-29T08:54:24;14.90;99.90
20829;DHT22;10575;50.124;8.582;2023-04-29T08:56:51;15.00;99.90
20829;DHT22;10575;50.124;8.582;2023-04-29T08:59:17;15.10;99.90
20829;DHT22;10575;50.124;8.582;2023-04-29T09:01:45;15.20;99.90
20829;DHT22;10575;50.124;8.582;2023-04-29T09:07:10;14.80;99.90
20829;DHT22;10575;50.124;8.582;2023-04-29T09:09:38;14.90;99.90
20829;DHT22;10575;50.124;8.582;2023-04-29T09:12:04;14.80;99.90
20829;DHT22;10575;50.124;8.582;2023-04-29T09:14:31;15.00;99.90
20829;DHT22;10575;50.124;8.582;2023-04-29T09:16:58;15.10;99.90
20829;DHT22;10575;50.124;8.582;2023-04-29T09:19:32;14.90;99.90
20829;DHT22;10575;50.124;8.582;2023-04-29T09:21:58;14.80;99.90
20829;DHT22;10575;50.124;8.582;2023-04-29T09:24:26;14.60;99.90
20829;DHT22;10575;50.124;8.582;2023-04-29T09:26:54;14.40;99.90
20829;DHT22;10575;50.124;8.582;2023-04-29T09:29:21;14.40;99.90
20829;DHT22;10575;50.124;8.582;2023-04-29T09:31:47;14.50;99.90
20829;DHT22;10575;50.124;8.582;2023-04-29T09:34:13;14.40;99.90
20829;DHT22;10575;50.124;8.582;2023-04-29T09:36:42;14.30;99.90
20829;DHT22;10575;50.124;8.582;2023-04-29T09:39:19;14.50;99.90
20829;DHT22;10575;50.124;8.582;2023-04-29T09:44:17;14.50;99.90
20829;DHT22;10575;50.124;8.582;2023-04-29T09:46:42;14.50;99.90
20829;DHT22;10575;50.124;8.582;2023-04-29T09:49:22;14.60;99.90
20829;DHT22;10575;50.124;8.582;2023-04-29T09:51:57;14.60;99.90
20829;DHT22;10575;50.124;8.582;2023-04-29T09:54:24;14.90;99.90
20829;DHT22;10575;50.124;8.582;2023-04-29T09:56:51;14.70;99.90
20829;DHT22;10575;50.124;8.582;2023-04-29T09:59:18;14.90;99.90
20829;DHT22;10575;50.124;8.582;2023-04-29T10:01:52;15.00;99.90
20829;DHT22;10575;50.124;8.582;2023-04-29T10:04:20;15.00;99.90
20829;DHT22;10575;50.124;8.582;2023-04-29T10:06:48;15.00;99.90
20829;DHT22;10575;50.124;8.582;2023-04-29T10:09:14;15.10;99.90
20829;DHT22;10575;50.124;8.582;2023-04-29T10:11:42;15.10;99.90
20829;DHT22;10575;50.124;8.582;2023-04-29T10:14:12;14.90;99.90
20829;DHT22;10575;50.124;8.582;2023-04-29T10:16:44;15.00;99.90
20829;DHT22;10575;50.124;8.582;2023-04-29T10:19:11;15.10;99.90
20829;DHT22;10575;50.124;8.582;2023-04-29T10:21:40;15.30;99.90
20829;DHT22;10575;50.124;8.582;2023-04-29T10:24:06;15.20;99.90
20829;DHT22;10575;50.124;8.582;2023-04-29T10:26:34;15.20;99.90
20829;DHT22;10575;50.124;8.582;2023-04-29T10:29:04;15.40;99.90
20829;DHT22;10575;50.124;8.582;2023-04-29T10:31:33;15.60;99.90
20829;DHT22;10575;50.124;8.582;2023-04-29T10:33:59;15.90;99.90
20829;DHT22;10575;50.124;8.582;2023-04-29T10:36:29;16.10;99.90
20829;DHT22;10575;50.124;8.582;2023-04-29T10:38:58;16.10;99.90
20829;DHT22;10575;50.124;8.582;2023-04-29T10:41:36;16.30;99.90
20829;DHT22;10575;50.124;8.582;2023-04-29T10:44:02;16.90;99.90
20829;DHT22;10575;50.124;8.582;2023-04-29T10:46:28;17.60;99.90
20829;DHT22;10575;50.124;8.582;2023-04-29T10:49:02;18.50;99.90
20829;DHT22;10575;50.124;8.582;2023-04-29T10:51:33;19.20;99.90
20829;DHT22;10575;50.124;8.582;2023-04-29T10:54:13;19.70;99.90
20829;DHT22;10575;50.124;8.582;2023-04-29T10:56:50;20.10;99.90
20829;DHT22;10575;50.124;8.582;2023-04-29T10:59:20;20.20;99.90
20829;DHT22;10575;50.124;8.582;2023-04-29T11:01:48;20.20;99.90
20829;DHT22;10575;50.124;8.582;2023-04-29T11:04:14;20.00;99.90
20829;DHT22;10575;50.124;8.582;2023-04-29T11:06:43;19.30;99.90
20829;DHT22;10575;50.124;8.582;2023-04-29T11:09:12;18.80;99.90
20829;DHT22;10575;50.124;8.582;2023-04-29T11:11:46;18.60;99.90
20829;DHT22;10575;50.124;8.582;2023-04-29T11:14:14;18.10;99.90
20829;DHT22;10575;50.124;8.582;2023-04-29T11:17:10;17.90;99.90
20829;DHT22;10575;50.124;8.582;2023-04-29T11:22:26;17.30;99.90
20829;DHT22;10575;50.124;8.582;2023-04-29T11:25:02;17.40;99.90
20829;DHT22;10575;50.124;8.582;2023-04-29T11:27:36;17.90;99.90
20829;DHT22;10575;50.124;8.582;2023-04-29T11:30:04;17.90;99.90
20829;DHT22;10575;50.124;8.582;2023-04-29T11:32:32;17.70;99.90
20829;DHT22;10575;50.124;8.582;2023-04-29T11:35:12;17.80;99.90
20829;DHT22;10575;50.124;8.582;2023-04-29T11:37:39;17.80;99.90
20829;DHT22;10575;50.124;8.582;2023-04-29T11:40:06;17.60;99.90
20829;DHT22;10575;50.124;8.582;2023-04-29T11:42:45;17.70;99.90
20829;DHT22;10575;50.124;8.582;2023-04-29T11:45:11;17.90;99.90
20829;DHT22;10575;50.124;8.582;2023-04-29T11:47:40;18.10;99.90
20829;DHT22;10575;50.124;8.582;2023-04-29T11:50:07;18.40;99.90
20829;DHT22;10575;50.124;8.582;2023-04-29T11:52:36;18.40;99.90
20829;DHT22;10575;50.124;8.582;2023-04-29T11:55:03;18.80;99.90
20829;DHT22;10575;50.124;8.582;2023-04-29T11:57:29;19.20;99.90
20829;DHT22;10575;50.124;8.582;2023-04-29T11:59:56;19.30;99.90
20829;DHT22;10575;50.124;8.582;2023-04-29T12:02:22;19.40;99.90
20829;DHT22;10575;50.124;8.582;2023-04-29T12:04:53;19.60;99.90
20829;DHT22;10575;50.124;8.582;2023-04-29T12:07:18;19.50;99.90
20829;DHT22;10575;50.124;8.582;2023-04-29T12:09:44;19.20;99.90
20829;DHT22;10575;50.124;8.582;2023-04-29T12:12:11;19.20;99.90
20829;DHT22;10575;50.124;8.582;2023-04-29T12:14:37;19.00;99.90
20829;DHT22;10575;50.124;8.582;2023-04-29T12:17:04;18.70;99.90
20829;DHT22;10575;50.124;8.582;2023-04-29T12:19:30;18.80;99.90
20829;DHT22;10575;50.124;8.582;2023-04-29T12:21:59;18.20;99.90
20829;DHT22;10575;50.124;8.582;2023-04-29T12:24:27;18.00;99.90
20829;DHT22;10575;50.124;8.582;2023-04-29T12:26:54;17.80;99.90
20829;DHT22;10575;50.124;8.582;2023-04-29T12:29:24;17.40;99.90
20829;DHT22;10575;50.124;8.582;2023-04-29T12:31:50;17.10;99.90
20829;DHT22;10575;50.124;8.582;2023-04-29T12:34:15;16.90;99.90
20829;DHT22;10575;50.124;8.582;2023-04-29T12:36:42;16.70;99.90
20829;DHT22;10575;50.124;8.582;2023-04-29T12:39:09;16.60;99.90
20829;DHT22;10575;50.124;8.582;2023-04-29T12:41:39;16.60;99.90
20829;DHT22;10575;50.124;8.582;2023-04-29T12:44:05;16.60;99.90
20829;DHT22;10575;50.124;8.582;2023-04-29T12:46:39;16.50;99.90
20829;DHT22;10575;50.124;8.582;2023-04-29T12:49:05;16.10;99.90
20829;DHT22;10575;50.124;8.582;2023-04-29T12:51:32;15.80;99.90
20829;DHT22;10575;50.124;8.582;2023-04-29T12:54:02;15.60;99.90
20829;DHT22;10575;50.124;8.582;2023-04-29T12:56:29;15.50;99.90
20829;DHT22;10575;50.124;8.582;2023-04-29T12:58:56;15.50;99.90
20829;DHT22;10575;50.124;8.582;2023-04-29T13:01:21;15.50;99.90
20829;DHT22;10575;50.124;8.582;2023-04-29T13:03:47;15.60;99.90
20829;DHT22;10575;50.124;8.582;2023-04-29T13:06:14;15.70;99.90
20829;DHT22;10575;50.124;8.582;2023-04-29T13:08:39;15.80;99.90
20829;DHT22;10575;50.124;8.582;2023-04-29T13:11:06;15.90;99.90
20829;DHT22;10575;50.124;8.582;2023-04-29T13:13:31;16.20;99.90
20829;DHT22;10575;50.124;8.582;2023-04-29T13:15:57;16.40;99.90
20829;DHT22;10575;50.124;8.582;2023-04-29T13:18:22;16.60;99.90
20829;DHT22;10575;50.124;8.582;2023-04-29T13:20:48;16.70;99.90
20829;DHT22;10575;50.124;8.582;2023-04-29T13:23:14;16.90;99.90
20829;DHT22;10575;50.124;8.582;2023-04-29T13:25:39;17.20;99.90
20829;DHT22;10575;50.124;8.582;2023-04-29T13:28:05;17.10;99.90
20829;DHT22;10575;50.124;8.582;2023-04-29T13:30:31;17.20;99.90
20829;DHT22;10575;50.124;8.582;2023-04-29T13:32:57;17.20;99.90
20829;DHT22;10575;50.124;8.582;2023-04-29T13:35:23;16.80;99.90
20829;DHT22;10575;50.124;8.582;2023-04-29T13:37:48;16.50;99.90
20829;DHT22;10575;50.124;8.582;2023-04-29T13:40:14;16.40;99.90
20829;DHT22;10575;50.124;8.582;2023-04-29T13:42:39;16.30;99.90
20829;DHT22;10575;50.124;8.582;2023-04-29T13:45:05;16.20;99.90
20829;DHT22;10575;50.124;8.582;2023-04-29T13:47:31;16.20;99.90
20829;DHT22;10575;50.124;8.582;2023-04-29T13:49:56;16.20;99.90
20829;DHT22;10575;50.124;8.582;2023-04-29T13:52:22;16.30;99.90
20829;DHT22;10575;50.124;8.582;2023-04-29T13:54:47;16.40;99.90
20829;DHT22;10575;50.124;8.582;2023-04-29T13:57:13;16.40;99.90
20829;DHT22;10575;50.124;8.582;2023-04-29T13:59:38;16.40;99.90
20829;DHT22;10575;50.124;8.582;2023-04-29T14:02:04;16.40;99.90
20829;DHT22;10575;50.124;8.582;2023-04-29T14:04:30;16.50;99.90
20829;DHT22;10575;50.124;8.582;2023-04-29T14:06:55;16.70;99.90
20829;DHT22;10575;50.124;8.582;2023-04-29T14:09:22;16.70;99.90
20829;DHT22;10575;50.124;8.582;2023-04-29T14:11:48;16.60;99.90
20829;DHT22;10575;50.124;8.582;2023-04-29T14:14:14;16.70;99.90
20829;DHT22;10575;50.124;8.582;2023-04-29T14:16:41;16.90;99.90
20829;DHT22;10575;50.124;8.582;2023-04-29T14:19:07;16.90;99.90
20829;DHT22;10575;50.124;8.582;2023-04-29T14:21:32;17.00;99.90
20829;DHT22;10575;50.124;8.582;2023-04-29T14:23:59;16.90;99.90
20829;DHT22;10575;50.124;8.582;2023-04-29T14:26:25;16.70;99.90
20829;DHT22;10575;50.124;8.582;2023-04-29T14:28:51;16.50;99.90
20829;DHT22;10575;50.124;8.582;2023-04-29T14:31:25;16.40;99.90
20829;DHT22;10575;50.124;8.582;2023-04-29T14:33:52;16.40;99.90
20829;DHT22;10575;50.124;8.582;2023-04-29T14:36:18;16.30;99.90
20829;DHT22;10575;50.124;8.582;2023-04-29T14:38:44;16.30;99.90
20829;DHT22;10575;50.124;8.582;2023-04-29T14:41:09;16.20;99.90
20829;DHT22;10575;50.124;8.582;2023-04-29T14:43:35;16.10;99.90
20829;DHT22;10575;50.124;8.582;2023-04-29T14:46:00;16.00;99.90
20829;DHT22;10575;50.124;8.582;2023-04-29T14:48:26;15.90;99.90
20829;DHT22;10575;50.124;8.582;2023-04-29T14:50:52;15.80;99.90
20829;DHT22;10575;50.124;8.582;2023-04-29T14:53:18;15.80;99.90
20829;DHT22;10575;50.124;8.582;2023-04-29T14:55:45;15.80;99.90
20829;DHT22;10575;50.124;8.582;2023-04-29T14:58:11;15.90;99.90
20829;DHT22;10575;50.124;8.582;2023-04-29T15:00:37;15.90;99.90
20829;DHT22;10575;50.124;8.582;2023-04-29T15:03:03;16.00;99.90
20829;DHT22;10575;50.124;8.582;2023-04-29T15:05:29;16.00;99.90
20829;DHT22;10575;50.124;8.582;2023-04-29T15:07:55;16.00;99.90
20829;DHT22;10575;50.124;8.582;2023-04-29T15:10:22;15.80;99.90
20829;DHT22;10575;50.124;8.582;2023-04-29T15:12:48;15.80;99.90
20829;DHT22;10575;50.124;8.582;2023-04-29T15:15:14;15.70;99.90
20829;DHT22;10575;50.124;8.582;2023-04-29T15:17:39;15.50;99.90
20829;DHT22;10575;50.124;8.582;2023-04-29T15:20:05;15.40;99.90
20829;DHT22;10575;50.124;8.582;2023-04-29T15:22:31;15.30;99.90
20829;DHT22;10575;50.124;8.582;2023-04-29T15:24:57;15.30;99.90
20829;DHT22;10575;50.124;8.582;2023-04-29T15:27:23;15.40;99.90
20829;DHT22;10575;50.124;8.582;2023-04-29T15:29:49;15.30;99.90
20829;DHT22;10575;50.124;8.582;2023-04-29T15:32:17;15.30;99.90
20829;DHT22;10575;50.124;8.582;2023-04-29T15:34:43;15.10;99.90
20829;DHT22;10575;50.124;8.582;2023-04-29T15:37:08;15.10;99.90
20829;DHT22;10575;50.124;8.582;2023-04-29T15:39:33;15.10;99.90
20829;DHT22;10575;50.124;8.582;2023-04-29T15:41:59;15.00;99.90